createdAt,value
2018-12-13T00:00:45.684Z,0
2018-12-13T00:01:44.230Z,0
2018-12-13T00:02:42.750Z,0
2018-12-13T00:03:41.327Z,0
2018-12-13T00:04:39.920Z,0
2018-12-13T00:05:38.699Z,0
2018-12-13T00:06:37.406Z,0
2018-12-13T00:07:35.981Z,0
2018-12-13T00:08:34.812Z,0
2018-12-13T00:09:33.404Z,0
2018-12-13T00:10:31.973Z,0
2018-12-13T00:11:30.744Z,0
2018-12-13T00:12:29.466Z,0
2018-12-13T00:13:28.009Z,0
2018-12-13T00:14:26.932Z,0
2018-12-13T00:15:25.441Z,0
2018-12-13T00:16:23.966Z,0
2018-12-13T00:17:22.530Z,0
2018-12-13T00:18:21.058Z,0
2018-12-13T00:19:19.619Z,0
2018-12-13T00:20:18.384Z,0
2018-12-13T00:21:17.183Z,0
2018-12-13T00:22:15.754Z,0
2018-12-13T00:23:14.481Z,0
2018-12-13T00:24:13.214Z,0
2018-12-13T00:25:11.757Z,0
2018-12-13T00:26:10.448Z,0
2018-12-13T00:27:09.083Z,0
2018-12-13T00:28:07.621Z,0
2018-12-13T00:29:06.286Z,0
2018-12-13T00:30:05.204Z,0
2018-12-13T00:31:03.836Z,0
2018-12-13T00:32:02.516Z,0
2018-12-13T00:33:01.158Z,0
2018-12-13T00:33:59.693Z,0
2018-12-13T00:34:58.385Z,0
2018-12-13T00:35:57.286Z,0
2018-12-13T00:36:55.793Z,0
2018-12-13T00:37:54.309Z,0
2018-12-13T00:38:52.843Z,0
2018-12-13T00:39:51.385Z,0
2018-12-13T00:40:49.972Z,0
2018-12-13T00:41:48.642Z,0
2018-12-13T00:42:47.342Z,0
2018-12-13T00:43:45.895Z,0
2018-12-13T00:44:44.625Z,0
2018-12-13T00:45:43.203Z,0
2018-12-13T00:46:41.773Z,0
2018-12-13T00:47:40.398Z,0
2018-12-13T00:48:38.952Z,0
2018-12-13T00:49:37.500Z,0
2018-12-13T00:50:36.035Z,0
2018-12-13T00:51:34.570Z,0
2018-12-13T00:52:33.107Z,0
2018-12-13T00:53:31.623Z,0
2018-12-13T00:54:30.421Z,0
2018-12-13T00:55:29.096Z,0
2018-12-13T00:56:27.679Z,0
2018-12-13T00:57:26.229Z,0
2018-12-13T00:58:25.065Z,0
2018-12-13T00:59:29.189Z,0
2018-12-13T01:00:27.720Z,0
2018-12-13T01:01:26.479Z,0
2018-12-13T01:02:25.039Z,0
2018-12-13T01:03:23.587Z,0
2018-12-13T01:04:22.127Z,0
2018-12-13T01:05:20.833Z,0
2018-12-13T01:06:19.372Z,0
2018-12-13T01:07:17.959Z,0
2018-12-13T01:08:16.788Z,0
2018-12-13T01:09:15.516Z,0
2018-12-13T01:10:14.054Z,0
2018-12-13T01:11:12.622Z,0
2018-12-13T01:12:11.202Z,0
2018-12-13T01:13:09.756Z,0
2018-12-13T01:14:08.302Z,0
2018-12-13T01:15:06.964Z,0
2018-12-13T01:16:05.764Z,0
2018-12-13T01:17:04.434Z,0
2018-12-13T01:18:03.233Z,0
2018-12-13T01:19:01.762Z,0
2018-12-13T01:20:00.302Z,0
2018-12-13T01:20:58.850Z,0
2018-12-13T01:21:57.416Z,0
2018-12-13T01:22:55.944Z,0
2018-12-13T01:23:54.591Z,0
2018-12-13T01:24:53.298Z,0
2018-12-13T01:25:51.874Z,0
2018-12-13T01:26:50.561Z,0
2018-12-13T01:27:49.246Z,0
2018-12-13T01:28:47.814Z,0
2018-12-13T01:29:46.508Z,0
2018-12-13T01:30:45.098Z,0
2018-12-13T01:31:43.613Z,0
2018-12-13T01:32:42.325Z,0
2018-12-13T01:33:41.115Z,0
2018-12-13T01:34:39.671Z,0
2018-12-13T01:35:38.218Z,0
2018-12-13T01:36:37.142Z,0
2018-12-13T01:37:35.670Z,0
2018-12-13T01:38:34.361Z,0
2018-12-13T01:39:33.062Z,0
2018-12-13T01:40:31.625Z,0
2018-12-13T01:41:30.251Z,0
2018-12-13T01:42:29.108Z,0
2018-12-13T01:43:27.672Z,0
2018-12-13T01:44:26.218Z,0
2018-12-13T01:45:24.810Z,0
2018-12-13T01:46:23.353Z,0
2018-12-13T01:47:21.880Z,0
2018-12-13T01:48:20.614Z,0
2018-12-13T01:49:19.289Z,0
2018-12-13T01:50:17.832Z,0
2018-12-13T01:51:16.518Z,0
2018-12-13T01:52:15.247Z,0
2018-12-13T01:53:13.779Z,0
2018-12-13T01:54:12.396Z,0
2018-12-13T01:55:10.945Z,0
2018-12-13T01:56:09.651Z,0
2018-12-13T01:57:08.238Z,0
2018-12-13T01:58:07.108Z,0
2018-12-13T01:59:05.646Z,0
2018-12-13T02:00:04.429Z,0
2018-12-13T02:01:02.995Z,0
2018-12-13T02:02:01.583Z,0
2018-12-13T02:03:00.256Z,0
2018-12-13T02:03:59.124Z,0
2018-12-13T02:04:57.659Z,0
2018-12-13T02:05:56.183Z,0
2018-12-13T02:06:58.623Z,0
2018-12-13T02:07:53.513Z,0
2018-12-13T02:08:52.063Z,0
2018-12-13T02:09:50.564Z,0
2018-12-13T02:10:49.131Z,0
2018-12-13T02:11:47.664Z,0
2018-12-13T02:12:46.227Z,0
2018-12-13T02:13:44.805Z,0
2018-12-13T02:14:43.359Z,0
2018-12-13T02:15:41.872Z,0
2018-12-13T02:16:40.556Z,0
2018-12-13T02:17:39.268Z,0
2018-12-13T02:18:37.807Z,0
2018-12-13T02:19:36.424Z,0
2018-12-13T02:20:35.278Z,0
2018-12-13T02:21:33.842Z,0
2018-12-13T02:22:32.374Z,0
2018-12-13T02:23:30.919Z,0
2018-12-13T02:24:29.516Z,0
2018-12-13T02:25:28.189Z,0
2018-12-13T02:26:27.042Z,0
2018-12-13T02:27:25.661Z,0
2018-12-13T02:28:24.304Z,0
2018-12-13T02:29:22.904Z,0
2018-12-13T02:30:21.452Z,0
2018-12-13T02:31:19.993Z,0
2018-12-13T02:32:18.624Z,0
2018-12-13T02:33:17.177Z,0
2018-12-13T02:34:15.708Z,0
2018-12-13T02:35:14.344Z,0
2018-12-13T02:36:13.139Z,0
2018-12-13T02:37:11.681Z,0
2018-12-13T02:38:10.233Z,0
2018-12-13T02:39:09.018Z,0
2018-12-13T02:40:07.576Z,0
2018-12-13T02:41:06.103Z,0
2018-12-13T02:42:04.652Z,0
2018-12-13T02:43:03.182Z,0
2018-12-13T02:44:01.718Z,0
2018-12-13T02:45:00.594Z,0
2018-12-13T02:45:59.212Z,0
2018-12-13T02:46:57.725Z,0
2018-12-13T02:47:56.414Z,0
2018-12-13T02:48:55.157Z,0
2018-12-13T02:49:53.730Z,0
2018-12-13T02:50:52.263Z,0
2018-12-13T02:51:50.795Z,0
2018-12-13T02:52:49.355Z,0
2018-12-13T02:53:47.903Z,0
2018-12-13T02:54:46.575Z,0
2018-12-13T02:55:45.226Z,0
2018-12-13T02:56:43.761Z,0
2018-12-13T02:57:42.460Z,0
2018-12-13T02:58:41.221Z,0
2018-12-13T02:59:39.784Z,0
2018-12-13T03:00:38.434Z,0
2018-12-13T03:01:36.972Z,0
2018-12-13T03:02:35.490Z,0
2018-12-13T03:03:34.058Z,0
2018-12-13T03:04:32.556Z,0
2018-12-13T03:05:31.104Z,0
2018-12-13T03:06:29.663Z,0
2018-12-13T03:07:28.290Z,0
2018-12-13T03:08:26.926Z,0
2018-12-13T03:09:25.477Z,0
2018-12-13T03:10:24.024Z,0
2018-12-13T03:11:22.775Z,0
2018-12-13T03:12:21.426Z,0
2018-12-13T03:13:19.980Z,0
2018-12-13T03:14:18.702Z,0
2018-12-13T03:15:17.233Z,0
2018-12-13T03:16:15.787Z,0
2018-12-13T03:17:14.395Z,0
2018-12-13T03:18:13.129Z,0
2018-12-13T03:19:11.690Z,0
2018-12-13T03:20:10.441Z,0
2018-12-13T03:21:09.308Z,0
2018-12-13T03:22:07.864Z,0
2018-12-13T03:23:06.525Z,0
2018-12-13T03:24:05.063Z,0
2018-12-13T03:25:03.624Z,0
2018-12-13T03:26:02.989Z,0
2018-12-13T03:27:02.711Z,0
2018-12-13T03:28:01.346Z,0
2018-12-13T03:28:59.884Z,0
2018-12-13T03:29:58.550Z,0
2018-12-13T03:30:57.220Z,0
2018-12-13T03:31:55.777Z,0
2018-12-13T03:32:54.313Z,0
2018-12-13T03:33:52.913Z,0
2018-12-13T03:34:51.462Z,0
2018-12-13T03:35:49.983Z,0
2018-12-13T03:36:48.521Z,0
2018-12-13T03:37:47.130Z,0
2018-12-13T03:38:45.697Z,0
2018-12-13T03:39:44.492Z,0
2018-12-13T03:40:43.236Z,0
2018-12-13T03:41:41.773Z,0
2018-12-13T03:42:40.514Z,0
2018-12-13T03:43:39.080Z,0
2018-12-13T03:44:37.622Z,0
2018-12-13T03:45:36.194Z,0
2018-12-13T03:46:34.786Z,0
2018-12-13T03:47:33.412Z,0
2018-12-13T03:48:31.945Z,0
2018-12-13T03:49:30.873Z,0
2018-12-13T03:50:29.554Z,0
2018-12-13T03:51:28.157Z,0
2018-12-13T03:52:26.744Z,0
2018-12-13T03:53:25.304Z,0
2018-12-13T03:54:23.884Z,0
2018-12-13T03:55:22.942Z,0
2018-12-13T03:56:21.512Z,0
2018-12-13T03:57:20.085Z,0
2018-12-13T03:58:18.790Z,0
2018-12-13T03:59:17.306Z,0
2018-12-13T04:00:15.843Z,0
2018-12-13T04:01:14.402Z,0
2018-12-13T04:02:12.954Z,0
2018-12-13T04:03:11.469Z,0
2018-12-13T04:04:10.002Z,0
2018-12-13T04:05:08.565Z,0
2018-12-13T04:06:07.172Z,0
2018-12-13T04:07:05.708Z,0
2018-12-13T04:08:04.455Z,0
2018-12-13T04:09:03.996Z,0
2018-12-13T04:10:02.721Z,0
2018-12-13T04:11:01.332Z,0
2018-12-13T04:11:59.877Z,0
2018-12-13T04:12:58.482Z,0
2018-12-13T04:13:57.120Z,0
2018-12-13T04:14:55.644Z,0
2018-12-13T04:15:54.326Z,0
2018-12-13T04:16:53.400Z,0
2018-12-13T04:17:51.960Z,0
2018-12-13T04:18:50.619Z,0
2018-12-13T04:19:49.204Z,0
2018-12-13T04:20:47.747Z,0
2018-12-13T04:21:46.256Z,0
2018-12-13T04:22:45.057Z,0
2018-12-13T04:23:43.596Z,0
2018-12-13T04:24:42.361Z,0
2018-12-13T04:25:41.161Z,0
2018-12-13T04:26:39.681Z,0
2018-12-13T04:27:38.245Z,0
2018-12-13T04:28:36.824Z,0
2018-12-13T04:29:35.371Z,0
2018-12-13T04:30:33.955Z,0
2018-12-13T04:31:32.677Z,0
2018-12-13T04:32:31.358Z,0
2018-12-13T04:33:29.880Z,0
2018-12-13T04:34:28.561Z,0
2018-12-13T04:35:27.217Z,0
2018-12-13T04:36:25.788Z,0
2018-12-13T04:37:24.340Z,0
2018-12-13T04:40:04.406Z,0
2018-12-13T04:41:02.985Z,0
2018-12-13T04:42:01.539Z,0
2018-12-13T04:43:00.241Z,0
2018-12-13T04:43:59.190Z,0
2018-12-13T04:44:57.763Z,0
2018-12-13T04:45:56.458Z,0
2018-12-13T04:46:55.009Z,0
2018-12-13T04:47:53.585Z,0
2018-12-13T04:48:52.103Z,0
2018-12-13T04:49:50.893Z,0
2018-12-13T04:50:49.452Z,0
2018-12-13T04:51:47.981Z,0
2018-12-13T04:52:46.717Z,0
2018-12-13T04:53:45.497Z,0
2018-12-13T04:54:44.054Z,0
2018-12-13T04:55:42.621Z,0
2018-12-13T04:56:41.161Z,0
2018-12-13T04:57:39.746Z,0
2018-12-13T04:58:38.458Z,0
2018-12-13T04:59:37.145Z,0
2018-12-13T05:00:35.664Z,0
2018-12-13T05:01:34.359Z,0
2018-12-13T05:02:33.193Z,0
2018-12-13T05:03:31.654Z,0
2018-12-13T05:04:30.185Z,0
2018-12-13T05:05:28.800Z,0
2018-12-13T05:06:27.340Z,0
2018-12-13T05:07:25.978Z,0
2018-12-13T05:08:24.638Z,0
2018-12-13T05:09:23.349Z,0
2018-12-13T05:10:21.877Z,0
2018-12-13T05:11:20.829Z,0
2018-12-13T05:12:19.371Z,0
2018-12-13T05:13:17.886Z,0
2018-12-13T05:14:16.451Z,0
2018-12-13T05:15:15.010Z,0
2018-12-13T05:16:13.564Z,0
2018-12-13T05:17:12.210Z,0
2018-12-13T05:18:10.844Z,0
2018-12-13T05:19:09.429Z,0
2018-12-13T05:20:07.979Z,0
2018-12-13T05:21:06.703Z,0
2018-12-13T05:22:05.388Z,0
2018-12-13T05:23:03.895Z,0
2018-12-13T05:24:02.592Z,0
2018-12-13T05:25:01.134Z,0
2018-12-13T05:25:59.683Z,0
2018-12-13T05:26:58.298Z,0
2018-12-13T05:27:56.933Z,0
2018-12-13T05:28:55.473Z,0
2018-12-13T05:29:54.017Z,0
2018-12-13T05:30:52.761Z,0
2018-12-13T05:31:51.546Z,0
2018-12-13T05:32:50.071Z,0
2018-12-13T05:33:48.787Z,0
2018-12-13T05:34:47.314Z,0
2018-12-13T05:35:45.837Z,0
2018-12-13T05:36:44.371Z,0
2018-12-13T05:37:48.213Z,0
2018-12-13T05:38:41.496Z,0
2018-12-13T05:39:40.084Z,0
2018-12-13T05:40:38.871Z,0
2018-12-13T05:41:37.442Z,0
2018-12-13T05:42:35.995Z,0
2018-12-13T05:43:34.815Z,0
2018-12-13T05:44:33.339Z,0
2018-12-13T05:45:31.869Z,0
2018-12-13T05:46:30.414Z,0
2018-12-13T05:47:28.933Z,0
2018-12-13T05:48:27.469Z,0
2018-12-13T05:49:26.025Z,0
2018-12-13T05:50:24.584Z,0
2018-12-13T05:51:23.075Z,0
2018-12-13T05:52:21.630Z,0
2018-12-13T05:53:20.349Z,0
2018-12-13T05:54:19.091Z,0
2018-12-13T05:55:17.650Z,0
2018-12-13T05:56:16.548Z,0
2018-12-13T05:57:15.154Z,0
2018-12-13T05:58:13.694Z,0
2018-12-13T05:59:12.227Z,0
2018-12-13T06:00:10.889Z,0
2018-12-13T06:01:09.404Z,0
2018-12-13T06:02:07.942Z,0
2018-12-13T06:03:06.830Z,0
2018-12-13T06:04:05.443Z,0
2018-12-13T06:05:04.004Z,0
2018-12-13T06:06:02.676Z,0
2018-12-13T06:07:01.267Z,0
2018-12-13T06:07:59.796Z,0
2018-12-13T06:08:58.344Z,0
2018-12-13T06:09:56.997Z,0
2018-12-13T06:10:55.536Z,0
2018-12-13T06:11:54.207Z,0
2018-12-13T06:12:53.096Z,0
2018-12-13T06:13:51.666Z,0
2018-12-13T06:14:50.244Z,0
2018-12-13T06:15:48.995Z,0
2018-12-13T06:16:47.542Z,0
2018-12-13T06:17:46.157Z,0
2018-12-13T06:18:44.953Z,0
2018-12-13T06:19:43.524Z,0
2018-12-13T06:20:42.083Z,0
2018-12-13T06:21:40.956Z,0
2018-12-13T06:22:39.599Z,0
2018-12-13T06:23:38.376Z,0
2018-12-13T06:24:37.167Z,0
2018-12-13T06:25:35.699Z,0
2018-12-13T06:26:34.259Z,0
2018-12-13T06:27:33.025Z,0
2018-12-13T06:28:31.544Z,0
2018-12-13T06:29:30.120Z,0
2018-12-13T06:30:28.652Z,0
2018-12-13T06:31:27.190Z,0
2018-12-13T06:32:25.794Z,0
2018-12-13T06:33:24.855Z,0
2018-12-13T06:34:23.207Z,0
2018-12-13T06:35:21.767Z,0
2018-12-13T06:36:20.406Z,0
2018-12-13T06:37:19.180Z,0
2018-12-13T06:38:17.707Z,0
2018-12-13T06:39:16.252Z,0
2018-12-13T06:40:15.617Z,0
2018-12-13T06:41:13.356Z,0
2018-12-13T06:42:12.081Z,0
2018-12-13T06:43:10.981Z,0
2018-12-13T06:44:09.586Z,0
2018-12-13T06:45:08.124Z,0
2018-12-13T06:46:06.854Z,0
2018-12-13T06:47:05.415Z,0
2018-12-13T06:48:03.979Z,0
2018-12-13T06:49:02.574Z,0
2018-12-13T06:50:01.118Z,0
2018-12-13T06:50:59.695Z,0
2018-12-13T06:51:58.364Z,0
2018-12-13T06:52:57.017Z,0
2018-12-13T06:53:55.656Z,0
2018-12-13T06:54:54.212Z,0
2018-12-13T06:55:53.009Z,0
2018-12-13T06:56:51.635Z,0
2018-12-13T06:57:50.157Z,0
2018-12-13T06:58:48.687Z,0
2018-12-13T06:59:47.227Z,0
2018-12-13T07:00:45.847Z,0
2018-12-13T07:01:44.474Z,0
2018-12-13T07:02:43.179Z,0
2018-12-13T07:03:41.708Z,0
2018-12-13T07:04:40.383Z,0
2018-12-13T07:05:39.101Z,0
2018-12-13T07:06:37.683Z,0
2018-12-13T07:07:36.222Z,0
2018-12-13T07:08:34.769Z,0
2018-12-13T07:09:33.297Z,0
2018-12-13T07:10:31.841Z,5
2018-12-13T07:11:30.361Z,5
2018-12-13T07:12:28.917Z,5
2018-12-13T07:13:27.473Z,5
2018-12-13T07:14:26.159Z,5
2018-12-13T07:15:25.019Z,5
2018-12-13T07:16:23.556Z,5
2018-12-13T07:17:22.086Z,5
2018-12-13T07:18:20.846Z,5
2018-12-13T07:19:19.373Z,5
2018-12-13T07:20:17.943Z,5
2018-12-13T07:21:16.707Z,5
2018-12-13T07:22:15.379Z,10
2018-12-13T07:23:13.969Z,10
2018-12-13T07:24:12.709Z,10
2018-12-13T07:25:11.391Z,10
2018-12-13T07:26:09.922Z,10
2018-12-13T07:27:08.555Z,10
2018-12-13T07:28:07.122Z,10
2018-12-13T07:29:05.658Z,10
2018-12-13T07:30:04.259Z,10
2018-12-13T07:31:02.930Z,10
2018-12-13T07:32:01.464Z,15
2018-12-13T07:33:00.008Z,15
2018-12-13T07:33:58.796Z,15
2018-12-13T07:35:01.232Z,15
2018-12-13T07:35:56.099Z,15
2018-12-13T07:36:54.726Z,15
2018-12-13T07:37:53.378Z,15
2018-12-13T07:38:51.973Z,15
2018-12-13T07:39:50.694Z,15
2018-12-13T07:40:49.328Z,20
2018-12-13T07:41:47.840Z,20
2018-12-13T07:42:46.537Z,20
2018-12-13T07:43:45.310Z,20
2018-12-13T07:44:43.858Z,20
2018-12-13T07:45:42.684Z,20
2018-12-13T07:46:41.356Z,20
2018-12-13T07:47:39.934Z,20
2018-12-13T07:48:38.592Z,20
2018-12-13T07:49:37.242Z,20
2018-12-13T07:50:35.777Z,20
2018-12-13T07:51:34.432Z,25
2018-12-13T07:52:32.952Z,25
2018-12-13T07:53:31.530Z,25
2018-12-13T07:54:30.049Z,25
2018-12-13T07:55:28.747Z,25
2018-12-13T07:56:27.444Z,25
2018-12-13T07:57:25.973Z,25
2018-12-13T07:58:24.690Z,25
2018-12-13T07:59:23.379Z,25
2018-12-13T08:00:21.988Z,30
2018-12-13T08:01:20.600Z,30
2018-12-13T08:02:19.142Z,30
2018-12-13T08:03:17.680Z,30
2018-12-13T08:04:16.232Z,30
2018-12-13T08:05:14.964Z,30
2018-12-13T08:06:13.523Z,30
2018-12-13T08:07:12.039Z,30
2018-12-13T08:08:10.919Z,30
2018-12-13T08:09:09.616Z,30
2018-12-13T08:10:08.204Z,35
2018-12-13T08:11:06.793Z,35
2018-12-13T08:12:05.361Z,35
2018-12-13T08:13:03.950Z,35
2018-12-13T08:14:02.629Z,35
2018-12-13T08:15:01.284Z,35
2018-12-13T08:15:59.826Z,35
2018-12-13T08:16:58.467Z,35
2018-12-13T08:17:57.329Z,35
2018-12-13T08:21:35.872Z,40
2018-12-13T08:22:34.604Z,40
2018-12-13T08:23:33.322Z,40
2018-12-13T08:24:31.854Z,40
2018-12-13T08:25:30.565Z,40
2018-12-13T08:26:29.202Z,40
2018-12-13T08:27:27.752Z,40
2018-12-13T08:28:26.301Z,40
2018-12-13T08:29:24.929Z,40
2018-12-13T08:30:23.490Z,40
2018-12-13T08:31:22.027Z,40
2018-12-13T08:32:20.561Z,40
2018-12-13T08:33:19.198Z,45
2018-12-13T08:34:17.672Z,45
2018-12-13T08:35:16.397Z,45
2018-12-13T08:36:15.233Z,45
2018-12-13T08:37:13.788Z,45
2018-12-13T08:38:12.450Z,50
2018-12-13T08:40:35.378Z,50
2018-12-13T08:41:33.928Z,55
2018-12-13T08:42:32.678Z,55
2018-12-13T08:43:31.393Z,55
2018-12-13T08:44:29.953Z,55
2018-12-13T08:45:28.557Z,55
2018-12-13T08:46:27.066Z,55
2018-12-13T08:47:25.585Z,55
2018-12-13T08:48:24.154Z,55
2018-12-13T08:49:22.693Z,55
2018-12-13T08:50:21.220Z,55
2018-12-13T08:51:19.769Z,55
2018-12-13T08:52:18.487Z,55
2018-12-13T08:53:17.156Z,55
2018-12-13T08:54:15.682Z,60
2018-12-13T08:55:14.368Z,55
2018-12-13T08:56:13.193Z,60
2018-12-13T08:57:11.735Z,60
2018-12-13T08:58:10.305Z,60
2018-12-13T08:59:08.832Z,60
2018-12-13T09:00:07.391Z,60
2018-12-13T09:01:05.956Z,60
2018-12-13T09:02:04.605Z,60
2018-12-13T09:03:03.375Z,60
2018-12-13T09:04:01.957Z,60
2018-12-13T09:05:00.778Z,60
2018-12-13T09:05:59.349Z,60
2018-12-13T09:06:57.877Z,60
2018-12-13T09:07:56.448Z,60
2018-12-13T09:08:54.993Z,60
2018-12-13T09:09:53.528Z,65
2018-12-13T09:10:52.047Z,65
2018-12-13T09:11:50.586Z,65
2018-12-13T09:12:49.170Z,65
2018-12-13T09:13:47.733Z,65
2018-12-13T09:14:46.400Z,65
2018-12-13T09:15:45.201Z,65
2018-12-13T09:16:43.741Z,65
2018-12-13T09:17:42.291Z,65
2018-12-13T09:18:41.040Z,65
2018-12-13T09:19:39.593Z,65
2018-12-13T09:20:38.110Z,65
2018-12-13T09:21:36.677Z,65
2018-12-13T09:22:35.212Z,65
2018-12-13T09:23:33.761Z,65
2018-12-13T09:24:32.445Z,65
2018-12-13T09:25:31.089Z,65
2018-12-13T09:26:29.643Z,65
2018-12-13T09:27:28.372Z,65
2018-12-13T09:28:27.227Z,65
2018-12-13T09:29:25.768Z,70
2018-12-13T09:30:24.326Z,70
2018-12-13T09:31:22.855Z,70
2018-12-13T09:32:21.394Z,70
2018-12-13T09:33:19.954Z,70
2018-12-13T09:34:18.745Z,70
2018-12-13T09:35:17.399Z,70
2018-12-13T09:36:15.919Z,70
2018-12-13T09:37:14.578Z,70
2018-12-13T09:38:13.245Z,70
2018-12-13T09:39:11.773Z,70
2018-12-13T09:40:10.360Z,70
2018-12-13T09:41:09.070Z,70
2018-12-13T09:42:07.698Z,70
2018-12-13T09:43:06.431Z,70
2018-12-13T09:44:05.147Z,70
2018-12-13T09:45:03.774Z,70
2018-12-13T09:46:02.487Z,70
2018-12-13T09:47:01.040Z,70
2018-12-13T09:47:59.683Z,70
2018-12-13T09:48:58.398Z,70
2018-12-13T09:49:57.243Z,70
2018-12-13T09:50:55.786Z,70
2018-12-13T09:51:54.311Z,70
2018-12-13T09:52:53.080Z,70
2018-12-13T09:53:51.637Z,65
2018-12-13T09:54:50.160Z,65
2018-12-13T09:55:48.692Z,65
2018-12-13T09:56:47.283Z,65
2018-12-13T09:57:45.883Z,65
2018-12-13T09:58:44.537Z,65
2018-12-13T09:59:43.285Z,70
2018-12-13T10:00:41.860Z,70
2018-12-13T10:01:40.503Z,70
2018-12-13T10:02:39.313Z,70
2018-12-13T10:03:37.855Z,70
2018-12-13T10:04:36.410Z,75
2018-12-13T10:05:34.928Z,75
2018-12-13T10:06:33.471Z,75
2018-12-13T10:07:32.304Z,75
2018-12-13T10:08:31.059Z,70
2018-12-13T10:09:29.685Z,70
2018-12-13T10:10:28.332Z,70
2018-12-13T10:11:26.967Z,75
2018-12-13T10:12:25.521Z,80
2018-12-13T10:13:24.209Z,80
2018-12-13T10:14:22.833Z,80
2018-12-13T10:15:21.484Z,80
2018-12-13T10:16:20.041Z,75
2018-12-13T10:17:18.675Z,75
2018-12-13T10:18:17.346Z,80
2018-12-13T10:19:15.884Z,80
2018-12-13T10:20:14.496Z,80
2018-12-13T10:21:13.085Z,75
2018-12-13T10:22:12.062Z,80
2018-12-13T10:23:10.137Z,80
2018-12-13T10:24:08.691Z,85
2018-12-13T10:25:07.222Z,85
2018-12-13T10:26:05.791Z,90
2018-12-13T10:27:04.571Z,90
2018-12-13T10:28:03.198Z,90
2018-12-13T10:29:01.755Z,95
2018-12-13T10:30:00.359Z,100
2018-12-13T10:30:59.035Z,100
2018-12-13T10:31:57.599Z,95
2018-12-13T10:32:56.141Z,90
2018-12-13T10:33:54.792Z,90
2018-12-13T10:34:53.373Z,95
2018-12-13T10:35:51.897Z,90
2018-12-13T10:36:50.604Z,95
2018-12-13T10:37:49.410Z,95
2018-12-13T10:38:52.892Z,100
2018-12-13T10:39:46.585Z,100
2018-12-13T10:40:45.345Z,95
2018-12-13T10:41:43.869Z,90
2018-12-13T10:42:42.520Z,90
2018-12-13T10:43:41.064Z,90
2018-12-13T10:44:39.607Z,85
2018-12-13T10:47:19.601Z,85
2018-12-13T10:48:18.251Z,85
2018-12-13T10:49:17.285Z,85
2018-12-13T10:50:15.881Z,80
2018-12-13T10:51:14.433Z,80
2018-12-13T10:52:13.098Z,80
2018-12-13T10:53:11.565Z,80
2018-12-13T10:54:10.207Z,85
2018-12-13T10:55:08.894Z,95
2018-12-13T10:56:07.422Z,105
2018-12-13T10:57:05.961Z,95
2018-12-13T10:58:04.785Z,85
2018-12-13T10:59:03.517Z,85
2018-12-13T11:00:02.089Z,85
2018-12-13T11:01:00.651Z,85
2018-12-13T11:01:59.218Z,80
2018-12-13T11:02:57.746Z,80
2018-12-13T11:03:56.512Z,80
2018-12-13T11:04:55.281Z,75
2018-12-13T11:05:53.867Z,80
2018-12-13T11:06:52.446Z,80
2018-12-13T11:07:51.211Z,80
2018-12-13T11:08:49.740Z,80
2018-12-13T11:09:48.286Z,80
2018-12-13T11:10:46.803Z,80
2018-12-13T11:11:45.352Z,85
2018-12-13T11:12:43.893Z,80
2018-12-13T11:13:42.450Z,85
2018-12-13T11:14:40.984Z,85
2018-12-13T11:15:39.942Z,80
2018-12-13T11:19:18.482Z,85
2018-12-13T11:20:17.298Z,85
2018-12-13T11:21:17.329Z,85
2018-12-13T11:22:14.357Z,85
2018-12-13T11:23:12.942Z,85
2018-12-13T11:24:11.479Z,85
2018-12-13T11:25:09.983Z,85
2018-12-13T11:26:08.544Z,85
2018-12-13T11:27:07.069Z,85
2018-12-13T11:28:05.622Z,85
2018-12-13T11:29:04.301Z,85
2018-12-13T11:30:03.170Z,85
2018-12-13T11:31:01.706Z,85
2018-12-13T11:32:00.470Z,85
2018-12-13T11:32:59.113Z,85
2018-12-13T11:33:57.658Z,85
2018-12-13T11:34:56.219Z,85
2018-12-13T11:35:54.802Z,90
2018-12-13T11:36:53.381Z,90
2018-12-13T11:37:51.937Z,95
2018-12-13T11:38:50.795Z,90
2018-12-13T11:39:49.536Z,85
2018-12-13T11:40:48.067Z,95
2018-12-13T11:41:46.735Z,100
2018-12-13T11:42:45.302Z,95
2018-12-13T11:43:43.892Z,95
2018-12-13T11:44:42.471Z,100
2018-12-13T11:45:41.131Z,100
2018-12-13T11:46:39.684Z,105
2018-12-13T11:47:38.188Z,110
2018-12-13T11:48:36.960Z,110
2018-12-13T11:49:35.502Z,105
2018-12-13T11:50:34.092Z,105
2018-12-13T11:51:32.743Z,100
2018-12-13T11:52:31.426Z,100
2018-12-13T11:53:29.969Z,90
2018-12-13T11:54:28.507Z,95
2018-12-13T11:55:27.028Z,95
2018-12-13T11:56:25.610Z,95
2018-12-13T11:57:24.138Z,85
2018-12-13T11:58:22.857Z,80
2018-12-13T11:59:21.535Z,80
2018-12-13T12:00:20.064Z,85
2018-12-13T12:01:18.709Z,80
2018-12-13T12:02:23.772Z,75
2018-12-13T12:03:15.917Z,80
2018-12-13T12:04:14.527Z,75
2018-12-13T12:05:13.121Z,75
2018-12-13T12:06:11.662Z,75
2018-12-13T12:07:10.235Z,80
2018-12-13T12:08:08.996Z,85
2018-12-13T12:09:12.127Z,75
2018-12-13T12:10:06.177Z,70
2018-12-13T12:11:04.829Z,75
2018-12-13T12:12:03.502Z,70
2018-12-13T12:13:02.051Z,65
2018-12-13T12:14:00.705Z,65
2018-12-13T12:14:59.260Z,70
2018-12-13T12:15:57.810Z,70
2018-12-13T12:16:56.354Z,70
2018-12-13T12:17:54.868Z,60
2018-12-13T12:18:53.430Z,55
2018-12-13T12:19:51.994Z,55
2018-12-13T12:20:50.745Z,55
2018-12-13T12:21:49.436Z,55
2018-12-13T12:22:47.948Z,55
2018-12-13T12:23:46.624Z,55
2018-12-13T12:24:45.374Z,55
2018-12-13T12:25:43.920Z,65
2018-12-13T12:26:42.479Z,70
2018-12-13T12:27:41.042Z,75
2018-12-13T12:28:39.586Z,70
2018-12-13T12:29:38.351Z,70
2018-12-13T12:30:37.160Z,65
2018-12-13T12:31:35.741Z,70
2018-12-13T12:32:34.463Z,65
2018-12-13T12:33:33.048Z,65
2018-12-13T12:34:31.583Z,60
2018-12-13T12:35:30.118Z,55
2018-12-13T12:36:28.677Z,55
2018-12-13T12:37:27.235Z,55
2018-12-13T12:38:25.771Z,55
2018-12-13T12:39:24.452Z,55
2018-12-13T12:40:23.211Z,55
2018-12-13T12:41:21.767Z,55
2018-12-13T12:42:20.320Z,55
2018-12-13T12:43:19.200Z,55
2018-12-13T12:44:17.760Z,55
2018-12-13T12:45:16.287Z,55
2018-12-13T12:46:14.832Z,50
2018-12-13T12:47:13.388Z,50
2018-12-13T12:48:11.910Z,50
2018-12-13T12:49:10.659Z,45
2018-12-13T12:50:09.381Z,45
2018-12-13T12:51:07.943Z,45
2018-12-13T12:52:06.532Z,50
2018-12-13T12:53:05.382Z,50
2018-12-13T12:54:03.924Z,50
2018-12-13T12:55:02.769Z,50
2018-12-13T12:56:01.712Z,50
2018-12-13T12:57:00.253Z,50
2018-12-13T12:57:58.926Z,50
2018-12-13T12:58:57.460Z,50
2018-12-13T12:59:55.988Z,50
2018-12-13T13:00:54.545Z,50
2018-12-13T13:01:53.060Z,50
2018-12-13T13:02:51.625Z,45
2018-12-13T13:03:50.383Z,45
2018-12-13T13:04:49.230Z,45
2018-12-13T13:05:47.789Z,45
2018-12-13T13:06:46.355Z,45
2018-12-13T13:07:45.053Z,50
2018-12-13T13:08:43.612Z,50
2018-12-13T13:09:42.151Z,55
2018-12-13T13:10:40.699Z,55
2018-12-13T13:11:39.274Z,60
2018-12-13T13:12:37.820Z,60
2018-12-13T13:13:36.509Z,60
2018-12-13T13:14:35.231Z,55
2018-12-13T13:15:33.768Z,50
2018-12-13T13:16:32.382Z,50
2018-12-13T13:17:31.311Z,50
2018-12-13T13:18:29.862Z,45
2018-12-13T13:19:28.448Z,45
2018-12-13T13:20:27.168Z,40
2018-12-13T13:21:25.689Z,40
2018-12-13T13:22:24.223Z,40
2018-12-13T13:23:22.996Z,40
2018-12-13T13:24:21.604Z,40
2018-12-13T13:25:20.128Z,35
2018-12-13T13:26:18.822Z,35
2018-12-13T13:27:19.444Z,35
2018-12-13T13:28:17.985Z,35
2018-12-13T13:29:16.781Z,30
2018-12-13T13:30:15.791Z,25
2018-12-13T13:31:14.322Z,25
2018-12-13T13:32:13.370Z,25
2018-12-13T13:33:11.925Z,25
2018-12-13T13:34:10.585Z,20
2018-12-13T13:35:09.424Z,20
2018-12-13T13:36:07.938Z,20
2018-12-13T13:37:06.489Z,20
2018-12-13T13:38:04.999Z,25
2018-12-13T13:39:03.538Z,20
2018-12-13T13:40:02.100Z,20
2018-12-13T13:41:00.644Z,20
2018-12-13T13:41:59.188Z,20
2018-12-13T13:42:57.728Z,20
2018-12-13T13:43:56.231Z,20
2018-12-13T13:44:55.067Z,20
2018-12-13T13:45:53.485Z,20
2018-12-13T13:46:52.857Z,20
2018-12-13T13:47:50.833Z,20
2018-12-13T13:48:49.526Z,15
2018-12-13T13:49:48.064Z,15
2018-12-13T13:50:46.716Z,15
2018-12-13T13:51:45.254Z,15
2018-12-13T13:52:43.861Z,15
2018-12-13T13:53:42.433Z,15
2018-12-13T13:54:41.105Z,15
2018-12-13T13:55:39.635Z,15
2018-12-13T13:56:38.391Z,15
2018-12-13T13:57:37.012Z,10
2018-12-13T13:58:35.659Z,10
2018-12-13T13:59:34.176Z,10
2018-12-13T14:00:32.828Z,10
2018-12-13T14:01:31.414Z,10
2018-12-13T14:02:29.947Z,10
2018-12-13T14:03:28.756Z,10
2018-12-13T14:04:27.513Z,10
2018-12-13T14:05:26.062Z,15
2018-12-13T14:06:24.907Z,15
2018-12-13T14:07:23.516Z,15
2018-12-13T14:08:22.019Z,15
2018-12-13T14:09:20.540Z,15
2018-12-13T14:10:19.260Z,15
2018-12-13T14:11:17.800Z,15
2018-12-13T14:12:16.432Z,15
2018-12-13T14:13:15.204Z,15
2018-12-13T14:14:13.783Z,15
2018-12-13T14:15:12.432Z,15
2018-12-13T14:16:11.106Z,15
2018-12-13T14:17:09.634Z,15
2018-12-13T14:18:08.183Z,15
2018-12-13T14:19:06.694Z,15
2018-12-13T14:20:05.238Z,15
2018-12-13T14:21:03.753Z,15
2018-12-13T14:22:02.319Z,15